Time;durP1;ratioP1;P1;durP2;ratioP2;P2;SDS_P1;SDS_P2;PMS_P1;PMS_P2;Temp;Humidity;BMP_temperature;BMP_pressure;BME280_temperature;BME280_humidity;BME280_pressure;Samples;Min_cycle;Max_cycle;Signal;HPM_P1;HPM_P2
2022/07/06 00:01:32;;;;;;;3.17;2.42;;;24.20;92.70;;;;;;4176494;28;20021;-65
2022/07/06 00:03:33;;;;;;;4.65;2.40;;;24.20;92.60;;;;;;4182922;28;20056;-64
2022/07/06 00:05:34;;;;;;;7.07;2.42;;;24.20;92.60;;;;;;4193178;28;20132;-68
2022/07/06 00:07:35;;;;;;;4.18;2.10;;;24.10;92.60;;;;;;4187531;28;20469;-65
2022/07/06 00:09:36;;;;;;;7.82;2.35;;;24.10;92.70;;;;;;4176563;28;20044;-68
2022/07/06 00:11:37;;;;;;;4.47;2.55;;;24.00;92.70;;;;;;4176599;28;20025;-64
2022/07/06 00:13:39;;;;;;;5.72;2.33;;;23.90;92.80;;;;;;4175871;28;20045;-66
2022/07/06 00:15:40;;;;;;;8.73;2.42;;;23.90;92.80;;;;;;4176330;28;20033;-67
2022/07/06 00:17:41;;;;;;;2.65;2.33;;;23.80;92.90;;;;;;4176495;28;20071;-66
2022/07/06 00:19:42;;;;;;;6.25;2.28;;;23.80;92.90;;;;;;4176061;28;20091;-65
2022/07/06 00:21:44;;;;;;;7.10;2.28;;;23.80;93.00;;;;;;4176602;28;20075;-65
2022/07/06 00:23:45;;;;;;;5.65;2.08;;;23.70;93.00;;;;;;4177056;28;20099;-65
2022/07/06 00:25:47;;;;;;;7.20;2.85;;;23.70;93.10;;;;;;4193317;28;20472;-68
2022/07/06 00:27:49;;;;;;;3.50;1.95;;;23.60;93.10;;;;;;4187941;28;20104;-66
2022/07/06 00:29:50;;;;;;;2.92;2.72;;;23.50;93.20;;;;;;4176260;28;20041;-65
2022/07/06 00:31:51;;;;;;;1.90;1.80;;;23.50;93.20;;;;;;4175741;28;20045;-64
2022/07/06 00:33:52;;;;;;;7.05;2.58;;;23.40;93.40;;;;;;4176245;28;20033;-66
2022/07/06 00:35:53;;;;;;;4.47;2.35;;;23.40;93.50;;;;;;4176353;28;20386;-67
2022/07/06 00:37:54;;;;;;;3.58;2.63;;;23.30;93.70;;;;;;4176104;28;20041;-67
2022/07/06 00:39:55;;;;;;;3.72;2.15;;;23.20;93.70;;;;;;4176237;28;20994;-65
2022/07/06 00:41:57;;;;;;;5.65;2.22;;;23.20;93.90;;;;;;4190922;28;20089;-64
2022/07/06 00:43:58;;;;;;;6.63;2.42;;;23.10;94.00;;;;;;4192866;28;20058;-64
2022/07/06 00:45:59;;;;;;;6.72;2.83;;;23.10;94.10;;;;;;4192909;28;20032;-65
2022/07/06 00:48:00;;;;;;;4.78;2.00;;;23.00;94.20;;;;;;4192594;28;20082;-65
2022/07/06 00:50:22;;;;;;;4.63;2.58;;;23.00;94.40;;;;;;4190634;28;20372;-66
2022/07/06 00:52:23;;;;;;;5.15;2.10;;;23.00;94.50;;;;;;4159316;28;20042;-66
2022/07/06 00:54:26;;;;;;;4.50;2.28;;;22.90;94.60;;;;;;4159873;28;20080;-67
2022/07/06 00:56:29;;;;;;;4.88;2.38;;;22.90;94.80;;;;;;4159886;28;20041;-64
2022/07/06 00:58:31;;;;;;;6.20;2.17;;;22.90;95.00;;;;;;4159391;28;20038;-67
2022/07/06 01:00:32;;;;;;;8.40;2.40;;;22.80;95.10;;;;;;4159946;28;20115;-66
2022/07/06 01:02:35;;;;;;;4.93;1.92;;;22.80;95.20;;;;;;4159608;28;20091;-64
2022/07/06 01:04:36;;;;;;;4.43;2.30;;;22.80;95.40;;;;;;4177555;28;20025;-65
2022/07/06 01:06:38;;;;;;;6.05;2.20;;;22.70;95.40;;;;;;4190691;28;20086;-66
2022/07/06 01:08:39;;;;;;;3.78;2.05;;;22.80;95.50;;;;;;4192333;28;20053;-65
2022/07/06 01:10:40;;;;;;;5.43;2.13;;;22.70;95.60;;;;;;4192578;28;20020;-68
2022/07/06 01:12:43;;;;;;;4.43;2.08;;;22.70;95.60;;;;;;4192317;28;20435;-66
2022/07/06 01:14:45;;;;;;;5.72;1.95;;;22.70;95.60;;;;;;4186283;28;20074;-64
2022/07/06 01:16:47;;;;;;;3.17;2.42;;;22.70;95.60;;;;;;4175924;28;20048;-66
2022/07/06 01:18:48;;;;;;;8.32;2.33;;;22.80;95.70;;;;;;4175655;28;20049;-65
2022/07/06 01:20:50;;;;;;;3.53;2.20;;;22.80;95.80;;;;;;4176025;28;20067;-65
2022/07/06 01:22:54;;;;;;;5.22;2.40;;;22.80;95.80;;;;;;4175926;28;20037;-64
2022/07/06 01:24:55;;;;;;;3.65;2.03;;;22.80;95.80;;;;;;4184752;28;20085;-64
2022/07/06 01:26:57;;;;;;;2.75;2.08;;;22.90;95.80;;;;;;4192973;28;20082;-69
2022/07/06 01:28:58;;;;;;;3.55;1.92;;;22.90;95.80;;;;;;4191854;28;20473;-68
2022/07/06 01:30:59;;;;;;;2.42;2.17;;;22.90;95.90;;;;;;4192120;28;20044;-66
2022/07/06 01:33:00;;;;;;;11.95;2.95;;;22.80;96.00;;;;;;4182754;28;20074;-65
2022/07/06 01:35:02;;;;;;;3.80;2.65;;;22.70;96.30;;;;;;4176701;28;20045;-65
2022/07/06 01:37:03;;;;;;;6.32;2.40;;;22.60;96.40;;;;;;4178455;28;20079;-65
2022/07/06 01:39:06;;;;;;;7.68;2.90;;;22.60;96.70;;;;;;4187581;28;20040;-70
2022/07/06 01:41:07;;;;;;;4.60;2.30;;;22.50;96.90;;;;;;4194372;28;20106;-64
2022/07/06 01:43:08;;;;;;;4.05;2.28;;;22.50;97.00;;;;;;4195305;28;20537;-66
2022/07/06 01:45:10;;;;;;;7.28;2.63;;;22.50;97.20;;;;;;4194767;28;20446;-70
2022/07/06 01:47:11;;;;;;;4.03;2.70;;;22.50;97.30;;;;;;4195190;28;20025;-65
2022/07/06 01:49:13;;;;;;;6.63;2.53;;;22.50;97.50;;;;;;4194904;28;20469;-64
2022/07/06 01:51:14;;;;;;;3.42;2.65;;;22.50;97.60;;;;;;4195245;28;20466;-65
2022/07/06 01:53:15;;;;;;;5.35;2.50;;;22.50;98.00;;;;;;4190451;28;20033;-67
2022/07/06 01:55:16;;;;;;;3.38;2.70;;;22.40;98.50;;;;;;4177900;28;20098;-64
2022/07/06 01:57:17;;;;;;;3.78;2.60;;;22.40;98.50;;;;;;4178895;28;20477;-65
2022/07/06 01:59:19;;;;;;;3.05;2.67;;;22.30;98.70;;;;;;4178385;28;20029;-64
2022/07/06 02:01:20;;;;;;;6.07;2.88;;;22.30;98.90;;;;;;4177891;28;20025;-68
2022/07/06 02:03:21;;;;;;;3.28;2.63;;;22.30;99.00;;;;;;4184383;28;20492;-69
2022/07/06 02:05:22;;;;;;;5.40;2.60;;;22.30;99.30;;;;;;4194674;28;20078;-68
2022/07/06 02:07:24;;;;;;;4.70;2.92;;;22.20;99.80;;;;;;4194351;28;20036;-68
2022/07/06 02:09:25;;;;;;;4.47;2.75;;;22.10;99.90;;;;;;4194412;28;20044;-65
2022/07/06 02:11:27;;;;;;;7.40;2.80;;;22.00;99.90;;;;;;4194239;28;20044;-66
2022/07/06 02:13:29;;;;;;;4.40;3.00;;;22.00;99.90;;;;;;4194943;28;20032;-65
2022/07/06 02:15:30;;;;;;;5.00;3.10;;;21.90;99.90;;;;;;4194741;28;20487;-67
2022/07/06 02:17:31;;;;;;;10.00;3.70;;;21.90;99.90;;;;;;4194454;28;20106;-66
2022/07/06 02:19:32;;;;;;;9.20;4.03;;;22.00;99.90;;;;;;4192880;28;20032;-64
2022/07/06 02:21:33;;;;;;;7.88;3.97;;;21.90;99.90;;;;;;4192867;28;20086;-67
2022/07/06 02:23:34;;;;;;;7.32;3.95;;;21.80;99.90;;;;;;4178294;28;20087;-66
2022/07/06 02:25:36;;;;;;;5.90;3.67;;;21.80;99.90;;;;;;4177681;28;20049;-67
2022/07/06 02:27:37;;;;;;;4.75;3.80;;;21.60;99.90;;;;;;4186743;28;20450;-65
2022/07/06 02:29:38;;;;;;;19.38;5.00;;;21.50;99.90;;;;;;4179001;28;20052;-66
2022/07/06 02:31:39;;;;;;;11.23;4.53;;;21.50;99.90;;;;;;4193373;28;20398;-66
2022/07/06 02:33:42;;;;;;;7.40;4.03;;;21.30;99.90;;;;;;4193815;28;20036;-66
2022/07/06 02:35:43;;;;;;;7.63;4.10;;;20.90;99.90;;;;;;4193971;28;20074;-64
2022/07/06 02:37:44;;;;;;;7.25;4.25;;;20.50;99.90;;;;;;4194260;28;20040;-66
2022/07/06 02:39:46;;;;;;;9.65;5.07;;;20.30;99.90;;;;;;4194543;28;20098;-65
2022/07/06 02:41:47;;;;;;;10.07;4.60;;;20.10;99.90;;;;;;4192446;28;20028;-65
2022/07/06 02:43:48;;;;;;;12.82;4.43;;;19.90;99.90;;;;;;4178077;28;20091;-66
2022/07/06 02:45:49;;;;;;;8.63;4.53;;;19.80;99.90;;;;;;4177532;28;20029;-64
2022/07/06 02:47:50;;;;;;;10.07;4.90;;;19.70;99.90;;;;;;4177628;28;20083;-65
2022/07/06 02:49:52;;;;;;;11.43;6.10;;;19.70;99.90;;;;;;4177588;28;20041;-64
2022/07/06 02:51:53;;;;;;;6.80;4.78;;;19.60;99.90;;;;;;4177568;28;20119;-66
2022/07/06 02:53:54;;;;;;;10.88;4.55;;;19.60;99.90;;;;;;4177524;28;20471;-64
2022/07/06 02:55:55;;;;;;;12.20;4.15;;;19.60;99.90;;;;;;4177280;28;20045;-65
2022/07/06 02:57:57;;;;;;;7.07;3.72;;;19.50;99.90;;;;;;4177923;28;20021;-67
2022/07/06 02:59:58;;;;;;;6.65;4.32;;;19.50;99.90;;;;;;4177554;28;20021;-64
2022/07/06 03:01:59;;;;;;;7.32;4.03;;;19.40;99.90;;;;;;4177553;28;20021;-67
2022/07/06 03:04:00;;;;;;;7.35;4.28;;;19.40;99.90;;;;;;4177273;28;20439;-66
2022/07/06 03:06:01;;;;;;;9.73;4.80;;;19.40;99.90;;;;;;4177651;28;20051;-66
2022/07/06 03:08:02;;;;;;;9.00;4.72;;;19.40;99.90;;;;;;4184180;28;20032;-64
2022/07/06 03:10:04;;;;;;;8.38;4.90;;;19.20;99.90;;;;;;4193899;28;20040;-64
2022/07/06 03:12:06;;;;;;;11.88;4.97;;;19.20;99.90;;;;;;4193236;28;20082;-65
2022/07/06 03:14:07;;;;;;;9.38;4.72;;;19.10;99.90;;;;;;4193639;28;20036;-68
2022/07/06 03:16:08;;;;;;;9.05;5.13;;;19.00;99.90;;;;;;4193618;28;20036;-68
2022/07/06 03:18:10;;;;;;;11.40;4.80;;;19.00;99.90;;;;;;4181817;28;20487;-68
2022/07/06 03:20:11;;;;;;;6.78;5.20;;;18.90;99.90;;;;;;4177204;28;20078;-65
2022/07/06 03:22:12;;;;;;;11.57;5.40;;;18.90;99.90;;;;;;4177080;28;20071;-67
2022/07/06 03:24:13;;;;;;;6.95;4.97;;;18.90;99.90;;;;;;4177142;28;20066;-68
2022/07/06 03:26:14;;;;;;;7.78;4.45;;;18.90;99.90;;;;;;4190527;28;20117;-67
2022/07/06 03:28:16;;;;;;;9.23;5.10;;;18.90;99.90;;;;;;4193699;28;20036;-64
2022/07/06 03:30:17;;;;;;;6.72;5.07;;;18.80;99.90;;;;;;4193149;28;20029;-65
2022/07/06 03:32:18;;;;;;;6.38;4.65;;;18.80;99.90;;;;;;4193282;28;20102;-66
2022/07/06 03:34:19;;;;;;;5.22;4.65;;;18.70;99.90;;;;;;4193197;28;20554;-68
2022/07/06 03:36:20;;;;;;;8.05;4.93;;;18.70;99.90;;;;;;4193772;28;20036;-67
2022/07/06 03:38:21;;;;;;;6.40;4.63;;;18.60;99.90;;;;;;4193379;28;20032;-69
2022/07/06 03:40:23;;;;;;;9.55;5.32;;;18.60;99.90;;;;;;4193159;28;20318;-66
2022/07/06 03:42:24;;;;;;;5.93;5.07;;;18.50;99.90;;;;;;4183935;28;20094;-68
2022/07/06 03:44:25;;;;;;;5.68;4.65;;;18.40;99.90;;;;;;4176332;28;20033;-68
2022/07/06 03:46:28;;;;;;;8.98;5.13;;;18.40;99.90;;;;;;4176430;28;20489;-65
2022/07/06 03:48:29;;;;;;;6.45;4.60;;;18.40;99.90;;;;;;4176726;28;20037;-69
2022/07/06 03:50:30;;;;;;;8.52;5.40;;;18.30;99.90;;;;;;4176730;28;20083;-64
2022/07/06 03:52:31;;;;;;;7.97;5.40;;;18.30;99.90;;;;;;4193072;28;20024;-68
2022/07/06 03:54:33;;;;;;;9.10;5.82;;;18.20;99.90;;;;;;4193092;28;20028;-65
2022/07/06 03:56:34;;;;;;;6.90;5.28;;;18.20;99.90;;;;;;4185874;28;20029;-66
2022/07/06 03:58:35;;;;;;;8.50;5.13;;;18.20;99.90;;;;;;4175867;28;20041;-64
2022/07/06 04:00:38;;;;;;;7.68;5.32;;;18.30;99.90;;;;;;4177443;28;20074;-65
2022/07/06 04:02:39;;;;;;;7.70;5.05;;;18.30;99.90;;;;;;4176530;28;20033;-63
2022/07/06 04:04:40;;;;;;;6.88;5.35;;;18.30;99.90;;;;;;4182165;28;20073;-65
2022/07/06 04:06:41;;;;;;;8.07;5.63;;;18.40;99.90;;;;;;4176080;28;20037;-65
2022/07/06 04:08:42;;;;;;;8.23;5.32;;;18.40;99.90;;;;;;4176134;28;20151;-66
2022/07/06 04:10:44;;;;;;;7.47;4.70;;;18.40;99.90;;;;;;4177387;28;20037;-66
2022/07/06 04:12:45;;;;;;;12.27;5.32;;;18.40;99.90;;;;;;4176024;28;20033;-65
2022/07/06 04:14:46;;;;;;;5.78;4.22;;;18.40;99.90;;;;;;4176417;28;20107;-68
2022/07/06 04:16:47;;;;;;;5.97;4.45;;;18.40;99.90;;;;;;4175846;28;20037;-69
2022/07/06 04:18:48;;;;;;;10.68;5.38;;;18.40;99.90;;;;;;4175943;28;20033;-66
2022/07/06 04:20:50;;;;;;;5.72;4.30;;;18.40;99.90;;;;;;4180030;28;20044;-66
2022/07/06 04:22:52;;;;;;;5.25;4.25;;;18.40;99.90;;;;;;4192337;28;20435;-67
2022/07/06 04:24:53;;;;;;;6.97;5.65;;;18.40;99.90;;;;;;4192812;28;20028;-68
2022/07/06 04:26:54;;;;;;;7.32;4.43;;;18.40;99.90;;;;;;4192972;28;20428;-67
2022/07/06 04:28:55;;;;;;;5.88;4.70;;;18.50;99.90;;;;;;4192403;28;20127;-66
2022/07/06 04:30:56;;;;;;;8.65;4.53;;;18.50;99.90;;;;;;4189581;28;20036;-64
2022/07/06 04:32:58;;;;;;;5.95;4.63;;;18.50;99.90;;;;;;4176105;28;20098;-65
2022/07/06 04:34:59;;;;;;;6.50;4.70;;;18.50;99.90;;;;;;4175747;28;20420;-66
2022/07/06 04:37:00;;;;;;;9.13;4.63;;;18.60;99.90;;;;;;4176275;28;20388;-69
2022/07/06 04:39:01;;;;;;;5.95;4.07;;;18.60;99.90;;;;;;4175991;28;20079;-66
2022/07/06 04:41:03;;;;;;;7.22;4.57;;;18.70;99.90;;;;;;4176109;28;20669;-72
2022/07/06 04:43:04;;;;;;;5.72;4.25;;;18.70;99.90;;;;;;4176830;28;20041;-68
2022/07/06 04:45:06;;;;;;;5.70;4.45;;;18.70;99.90;;;;;;4192064;28;20075;-67
2022/07/06 04:47:07;;;;;;;4.55;4.03;;;18.80;99.90;;;;;;4192294;28;20102;-68
2022/07/06 04:49:08;;;;;;;4.22;3.83;;;18.80;99.90;;;;;;4192421;28;20067;-67
2022/07/06 04:51:09;;;;;;;4.40;4.00;;;18.90;99.90;;;;;;4192807;28;20106;-66
2022/07/06 04:53:11;;;;;;;5.18;3.50;;;18.90;99.90;;;;;;4192221;28;20462;-70
2022/07/06 04:55:14;;;;;;;6.95;4.25;;;19.00;99.90;;;;;;4191750;28;20131;-67
2022/07/06 04:57:15;;;;;;;6.05;4.30;;;19.00;99.90;;;;;;4193042;28;20087;-70
2022/07/06 04:59:16;;;;;;;4.93;4.43;;;19.00;99.90;;;;;;4192597;28;20028;-66
2022/07/06 05:01:18;;;;;;;4.55;3.92;;;19.00;99.90;;;;;;4192401;28;20041;-67
2022/07/06 05:03:19;;;;;;;5.88;4.15;;;19.00;99.90;;;;;;4190562;28;20086;-67
2022/07/06 05:05:20;;;;;;;6.20;3.95;;;19.00;99.90;;;;;;4191827;28;20078;-67
2022/07/06 05:07:22;;;;;;;5.90;4.00;;;19.00;99.90;;;;;;4192148;28;20135;-67
2022/07/06 05:09:23;;;;;;;10.57;4.20;;;19.10;99.90;;;;;;4190126;28;20033;-65
2022/07/06 05:11:24;;;;;;;14.95;5.05;;;19.20;99.90;;;;;;4195831;28;20020;-67
2022/07/06 05:13:26;;;;;;;9.23;4.65;;;19.20;99.90;;;;;;4194689;28;20447;-66
2022/07/06 05:15:27;;;;;;;11.13;5.22;;;19.30;99.90;;;;;;4195307;28;20545;-70
2022/07/06 05:17:28;;;;;;;5.82;4.65;;;19.30;99.90;;;;;;4195346;28;20032;-67
2022/07/06 05:19:29;;;;;;;5.50;4.05;;;19.40;99.90;;;;;;4195055;28;20488;-67
2022/07/06 05:21:31;;;;;;;7.13;3.35;;;19.50;99.90;;;;;;4195381;28;20089;-68
2022/07/06 05:23:32;;;;;;;4.07;3.35;;;19.50;99.90;;;;;;4195518;28;20082;-68
2022/07/06 05:25:33;;;;;;;8.77;5.35;;;19.60;99.90;;;;;;4193460;28;20048;-70
2022/07/06 05:27:34;;;;;;;5.93;3.70;;;19.60;99.90;;;;;;4195665;28;20488;-68
2022/07/06 05:29:35;;;;;;;9.70;6.80;;;19.60;99.90;;;;;;4195106;28;20863;-67
2022/07/06 05:31:36;;;;;;;16.92;8.82;;;19.60;99.90;;;;;;4195035;28;20482;-69
2022/07/06 05:33:38;;;;;;;12.48;6.60;;;19.60;99.90;;;;;;4194766;28;20036;-68
2022/07/06 05:35:39;;;;;;;8.75;5.85;;;19.60;99.90;;;;;;4194124;28;20094;-68
2022/07/06 05:37:40;;;;;;;9.27;4.93;;;19.70;99.90;;;;;;4194811;28;20022;-67
2022/07/06 05:39:43;;;;;;;8.23;6.15;;;19.70;99.90;;;;;;4194844;28;20040;-67
2022/07/06 05:41:44;;;;;;;6.13;4.05;;;19.80;99.90;;;;;;4194974;28;20032;-66
2022/07/06 05:43:46;;;;;;;6.85;4.32;;;19.90;99.90;;;;;;4194557;28;20469;-66
2022/07/06 05:45:47;;;;;;;8.30;5.78;;;19.90;99.90;;;;;;4194585;28;20041;-67
2022/07/06 05:50:14;;;;;;;7.38;5.18;;;20.00;99.90;;;;;;4195425;28;20044;-66
2022/07/06 05:52:15;;;;;;;5.82;4.03;;;20.10;99.90;;;;;;4194538;28;20029;-66
2022/07/06 05:54:16;;;;;;;5.43;4.07;;;20.10;99.90;;;;;;4194935;28;20029;-67
2022/07/06 05:56:17;;;;;;;12.52;7.15;;;20.00;99.90;;;;;;4193878;28;20512;-68
2022/07/06 05:58:19;;;;;;;4.60;4.03;;;19.90;99.90;;;;;;4194914;28;20083;-66
2022/07/06 06:00:24;;;;;;;6.95;4.43;;;19.90;99.90;;;;;;4194746;28;20112;-67
2022/07/06 06:02:25;;;;;;;4.22;3.80;;;19.80;99.90;;;;;;4194758;28;20729;-67
2022/07/06 06:04:26;;;;;;;7.13;4.40;;;19.80;99.90;;;;;;4194665;28;20033;-67
2022/07/06 06:06:30;;;;;;;4.97;4.47;;;19.80;99.90;;;;;;4194576;28;20040;-66
2022/07/06 06:08:32;;;;;;;11.20;3.63;;;19.80;99.90;;;;;;4193706;28;20052;-66
2022/07/06 06:10:33;;;;;;;3.80;3.38;;;19.70;99.90;;;;;;4194279;28;20048;-65
2022/07/06 06:12:34;;;;;;;4.05;3.63;;;19.40;99.90;;;;;;4194443;28;20028;-69
2022/07/06 06:14:35;;;;;;;6.22;4.53;;;19.30;99.90;;;;;;4193748;28;20028;-67
2022/07/06 06:16:37;;;;;;;4.75;4.22;;;19.20;99.90;;;;;;4194553;28;20086;-67
2022/07/06 06:18:38;;;;;;;5.80;4.70;;;19.10;99.90;;;;;;4194117;28;20086;-66
2022/07/06 06:20:39;;;;;;;6.93;4.00;;;19.00;99.90;;;;;;4193664;28;20098;-67
2022/07/06 06:22:55;;;;;;;6.97;4.13;;;19.00;99.90;;;;;;4194250;28;20029;-70
2022/07/06 06:24:56;;;;;;;7.72;4.70;;;18.90;99.90;;;;;;4194420;28;20052;-72
2022/07/06 06:26:58;;;;;;;5.20;4.45;;;18.80;99.90;;;;;;4194468;28;20024;-69
2022/07/06 06:29:00;;;;;;;6.22;4.35;;;18.70;99.90;;;;;;4193972;28;20056;-70
2022/07/06 06:31:01;;;;;;;6.63;4.88;;;18.80;99.90;;;;;;4193782;28;20036;-68
2022/07/06 06:33:12;;;;;;;4.78;3.75;;;18.70;99.90;;;;;;4194297;28;20032;-68
2022/07/06 06:35:13;;;;;;;8.38;5.00;;;18.70;99.90;;;;;;4193617;28;20041;-68
2022/07/06 06:37:14;;;;;;;6.20;5.03;;;18.70;99.90;;;;;;4194228;28;20028;-67
2022/07/06 06:39:15;;;;;;;7.60;5.45;;;18.70;99.90;;;;;;4193538;28;20464;-69
2022/07/06 06:41:18;;;;;;;9.05;5.18;;;18.70;99.90;;;;;;4193584;28;20365;-69
2022/07/06 06:43:19;;;;;;;7.78;5.28;;;18.70;99.90;;;;;;4193384;28;20040;-68
2022/07/06 06:45:20;;;;;;;8.15;5.32;;;18.70;99.90;;;;;;4193602;28;20472;-68
2022/07/06 06:47:21;;;;;;;7.30;4.97;;;18.70;99.90;;;;;;4194122;28;20036;-69
2022/07/06 06:49:23;;;;;;;6.25;5.65;;;18.70;99.90;;;;;;4193945;28;20028;-68
2022/07/06 06:51:24;;;;;;;7.00;4.95;;;18.70;99.90;;;;;;4192154;28;20075;-69
2022/07/06 06:53:25;;;;;;;6.82;5.22;;;18.70;99.90;;;;;;4193698;28;20040;-67
2022/07/06 06:55:26;;;;;;;6.68;5.97;;;18.80;99.90;;;;;;4193113;28;20066;-67
2022/07/06 06:57:28;;;;;;;8.27;5.35;;;18.70;99.90;;;;;;4193792;28;20028;-66
2022/07/06 06:59:30;;;;;;;8.30;5.85;;;18.70;99.90;;;;;;4193930;28;20021;-69
2022/07/06 07:01:32;;;;;;;8.80;6.55;;;18.70;99.90;;;;;;4193159;28;20492;-72
2022/07/06 07:03:33;;;;;;;9.13;5.25;;;18.80;99.90;;;;;;4193765;28;20038;-67
2022/07/06 07:05:35;;;;;;;8.30;5.60;;;18.90;99.90;;;;;;4193211;28;20484;-71
2022/07/06 07:07:36;;;;;;;7.75;5.18;;;18.90;99.90;;;;;;4193586;28;20077;-66
2022/07/06 07:09:37;;;;;;;9.00;5.55;;;18.80;99.90;;;;;;4193122;28;20029;-67
2022/07/06 07:11:38;;;;;;;6.50;4.78;;;18.90;99.90;;;;;;4193587;28;20427;-69
2022/07/06 07:13:40;;;;;;;6.70;4.90;;;18.80;99.90;;;;;;4193138;28;20086;-67
2022/07/06 07:15:41;;;;;;;10.23;4.82;;;18.80;99.90;;;;;;4192970;28;20549;-67
2022/07/06 07:17:42;;;;;;;8.18;4.85;;;18.70;99.90;;;;;;4192908;28;20079;-67
2022/07/06 07:19:43;;;;;;;7.72;5.22;;;18.80;99.90;;;;;;4192882;28;20040;-69
2022/07/06 07:21:45;;;;;;;8.40;4.95;;;18.70;99.90;;;;;;4193273;28;20506;-71
2022/07/06 07:23:46;;;;;;;7.50;4.85;;;18.70;99.90;;;;;;4192933;28;20040;-71
2022/07/06 07:25:47;;;;;;;5.28;4.53;;;18.70;99.90;;;;;;4193282;28;20020;-67
2022/07/06 07:27:48;;;;;;;7.28;4.68;;;18.70;99.90;;;;;;4193377;28;20032;-69
2022/07/06 07:29:49;;;;;;;6.10;4.60;;;18.70;99.90;;;;;;4192872;28;20048;-67
2022/07/06 07:31:51;;;;;;;9.90;5.78;;;18.80;99.90;;;;;;4192084;28;20090;-69
2022/07/06 07:33:52;;;;;;;6.10;5.50;;;18.90;99.90;;;;;;4192984;28;20089;-72
2022/07/06 07:35:53;;;;;;;5.50;4.88;;;19.00;99.90;;;;;;4192979;28;20094;-68
2022/07/06 07:37:54;;;;;;;5.47;4.53;;;19.10;99.90;;;;;;4192677;28;20040;-68
2022/07/06 07:39:55;;;;;;;4.95;4.45;;;19.20;99.90;;;;;;4193065;28;20101;-68
2022/07/06 07:41:57;;;;;;;6.78;5.00;;;19.20;99.90;;;;;;4192796;28;20426;-68
2022/07/06 07:43:58;;;;;;;6.10;4.97;;;19.20;99.90;;;;;;4192880;28;20462;-70
2022/07/06 07:45:59;;;;;;;4.85;4.07;;;19.20;99.90;;;;;;4193108;28;20024;-69
2022/07/06 07:48:00;;;;;;;6.88;4.50;;;19.10;99.90;;;;;;4193047;28;20036;-71
2022/07/06 07:50:01;;;;;;;5.95;4.60;;;19.10;99.90;;;;;;4193059;28;20090;-67
2022/07/06 07:52:03;;;;;;;4.00;3.60;;;19.10;99.90;;;;;;4192632;28;20028;-69
2022/07/06 07:54:04;;;;;;;7.13;4.45;;;19.10;99.90;;;;;;4192540;28;20037;-68
2022/07/06 07:56:05;;;;;;;5.05;4.55;;;19.10;99.90;;;;;;4192598;28;20049;-70
2022/07/06 07:58:07;;;;;;;7.50;5.18;;;19.10;99.90;;;;;;4193046;28;20028;-68
2022/07/06 08:00:09;;;;;;;5.10;4.60;;;19.10;99.90;;;;;;4192737;28;20550;-72
2022/07/06 08:02:10;;;;;;;6.70;4.13;;;19.20;99.90;;;;;;4192840;28;20040;-70
2022/07/06 08:04:11;;;;;;;4.63;3.83;;;19.20;99.90;;;;;;4193107;28;20028;-68
2022/07/06 08:06:12;;;;;;;4.45;3.95;;;19.20;99.90;;;;;;4192714;28;20358;-68
2022/07/06 08:08:14;;;;;;;5.72;4.53;;;19.20;99.90;;;;;;4192861;28;20041;-72
2022/07/06 08:10:15;;;;;;;5.70;4.75;;;19.30;99.90;;;;;;4192493;28;20462;-72
2022/07/06 08:12:16;;;;;;;4.93;4.50;;;19.30;99.90;;;;;;4192844;28;20032;-73
2022/07/06 08:14:17;;;;;;;6.35;5.07;;;19.30;99.90;;;;;;4192843;28;20028;-69
2022/07/06 08:16:19;;;;;;;5.45;4.95;;;19.30;99.90;;;;;;4191248;28;20040;-72
2022/07/06 08:18:20;;;;;;;7.65;4.90;;;19.30;99.90;;;;;;4192415;28;20431;-71
2022/07/06 08:20:21;;;;;;;5.65;4.00;;;19.30;99.90;;;;;;4192720;28;20020;-66
2022/07/06 08:22:22;;;;;;;5.47;4.65;;;19.30;99.90;;;;;;4192768;28;20028;-71
2022/07/06 08:24:24;;;;;;;7.38;5.30;;;19.30;99.90;;;;;;4192799;28;20490;-71
2022/07/06 08:26:25;;;;;;;6.60;5.47;;;19.30;99.90;;;;;;4192581;28;20025;-68
2022/07/06 08:28:26;;;;;;;6.10;5.50;;;19.30;99.90;;;;;;4193053;28;20032;-73
2022/07/06 08:30:27;;;;;;;8.57;6.22;;;19.30;99.90;;;;;;4192812;28;20028;-66
2022/07/06 08:32:28;;;;;;;5.65;4.75;;;19.40;99.90;;;;;;4192451;28;20553;-68
2022/07/06 08:34:29;;;;;;;6.57;5.13;;;19.40;99.90;;;;;;4192609;28;20045;-68
2022/07/06 08:36:31;;;;;;;7.13;5.40;;;19.30;99.90;;;;;;4190228;28;20074;-68
2022/07/06 08:38:32;;;;;;;5.15;4.65;;;19.30;99.90;;;;;;4192218;28;20040;-69
2022/07/06 08:40:35;;;;;;;5.22;4.38;;;19.40;99.90;;;;;;4192345;28;20024;-68
2022/07/06 08:42:36;;;;;;;4.60;4.13;;;19.30;99.90;;;;;;4192645;28;20036;-70
2022/07/06 08:44:39;;;;;;;5.13;4.05;;;19.20;99.90;;;;;;4194534;28;20032;-72
2022/07/06 08:46:41;;;;;;;8.20;4.72;;;19.30;99.90;;;;;;4195652;28;20040;-67
2022/07/06 08:48:43;;;;;;;7.15;6.45;;;19.20;99.90;;;;;;4195678;28;20066;-68
2022/07/06 08:50:44;;;;;;;5.18;4.68;;;19.30;99.90;;;;;;4194912;28;20428;-69
2022/07/06 08:52:47;;;;;;;7.63;6.10;;;19.30;99.90;;;;;;4195452;28;20036;-72
2022/07/06 08:54:48;;;;;;;7.28;5.82;;;19.30;99.90;;;;;;4195743;28;20142;-67
2022/07/06 08:56:50;;;;;;;10.65;7.97;;;19.30;99.90;;;;;;4195040;28;20056;-70
2022/07/06 08:58:51;;;;;;;8.02;5.95;;;19.40;99.90;;;;;;4196069;28;20032;-67
2022/07/06 09:00:57;;;;;;;9.52;5.13;;;19.40;99.90;;;;;;4195780;28;20032;-69
2022/07/06 09:02:59;;;;;;;6.13;5.00;;;19.40;99.90;;;;;;4195278;28;20033;-68
2022/07/06 09:05:03;;;;;;;4.68;4.03;;;19.50;99.90;;;;;;4195766;28;20029;-68
2022/07/06 09:07:04;;;;;;;6.95;4.60;;;19.50;99.90;;;;;;4195188;28;20090;-67
2022/07/06 09:09:08;;;;;;;4.40;3.97;;;19.40;99.90;;;;;;4195604;28;20146;-67
2022/07/06 09:11:09;;;;;;;5.72;4.88;;;19.30;99.90;;;;;;4194552;28;20074;-71
2022/07/06 09:13:10;;;;;;;4.80;4.30;;;19.40;99.90;;;;;;4195593;28;20082;-71
2022/07/06 09:15:12;;;;;;;5.80;4.70;;;19.50;99.90;;;;;;4195289;28;20090;-67
2022/07/06 09:17:13;;;;;;;4.85;3.78;;;19.50;99.90;;;;;;4195336;28;20042;-69
2022/07/06 09:19:16;;;;;;;4.78;2.92;;;19.50;99.90;;;;;;4193728;28;20036;-66
2022/07/06 09:21:25;;;;;;;3.15;2.70;;;19.50;99.90;;;;;;4195365;28;20028;-70
2022/07/06 09:23:27;;;;;;;3.53;3.15;;;19.40;99.90;;;;;;4195417;28;20074;-67
2022/07/06 09:25:29;;;;;;;3.20;3.00;;;19.40;99.90;;;;;;4195121;28;20510;-70
2022/07/06 09:27:30;;;;;;;4.78;3.72;;;19.40;99.90;;;;;;4195694;28;20020;-70
2022/07/06 09:29:32;;;;;;;3.65;3.22;;;19.30;99.90;;;;;;4195216;28;20090;-69
2022/07/06 09:31:33;;;;;;;4.78;3.95;;;19.30;99.90;;;;;;4195204;28;21073;-68
2022/07/06 09:33:35;;;;;;;5.20;4.03;;;19.40;99.90;;;;;;4195223;28;20036;-69
2022/07/06 09:35:38;;;;;;;5.00;4.53;;;19.50;99.90;;;;;;4195153;28;20040;-71
2022/07/06 09:37:39;;;;;;;4.63;3.67;;;19.50;99.90;;;;;;4195120;28;20430;-71
2022/07/06 09:39:43;;;;;;;4.10;3.80;;;19.50;99.90;;;;;;4195414;28;20411;-68
2022/07/06 09:41:45;;;;;;;3.60;3.30;;;19.50;99.90;;;;;;4193906;28;20455;-72
2022/07/06 09:43:47;;;;;;;3.55;2.85;;;19.50;99.90;;;;;;4195294;28;20032;-71
2022/07/06 09:45:53;;;;;;;3.85;3.55;;;19.50;99.90;;;;;;4194775;28;20457;-72
2022/07/06 09:47:57;;;;;;;3.20;2.80;;;19.50;99.90;;;;;;4194717;28;20097;-73
2022/07/06 09:50:00;;;;;;;4.82;3.63;;;19.40;99.90;;;;;;4194547;28;20118;-70
2022/07/06 09:52:11;;;;;;;3.85;3.45;;;19.40;99.90;;;;;;4195214;28;20142;-72
2022/07/06 09:54:12;;;;;;;5.10;3.53;;;19.50;99.90;;;;;;4194457;28;20033;-72
2022/07/06 09:56:14;;;;;;;4.30;3.90;;;19.50;99.90;;;;;;4193743;28;20459;-68
2022/07/06 09:58:17;;;;;;;4.40;3.25;;;19.60;99.90;;;;;;4194784;28;20783;-70
2022/07/06 10:00:19;;;;;;;4.20;3.80;;;19.60;99.90;;;;;;4194482;28;20122;-67
2022/07/06 10:02:22;;;;;;;3.55;3.25;;;19.60;99.90;;;;;;4194226;28;20041;-68
2022/07/06 10:04:24;;;;;;;3.13;2.83;;;19.60;99.90;;;;;;4194300;28;20044;-67
2022/07/06 10:06:26;;;;;;;3.35;3.08;;;19.60;99.90;;;;;;4192740;28;21181;-68
2022/07/06 10:08:29;;;;;;;3.80;3.47;;;19.60;99.90;;;;;;4194589;28;20078;-71
2022/07/06 10:10:30;;;;;;;5.50;3.72;;;19.60;99.90;;;;;;4194028;28;20067;-73
2022/07/06 10:12:32;;;;;;;3.53;2.85;;;19.70;99.90;;;;;;4194165;28;20036;-68
2022/07/06 10:14:34;;;;;;;4.07;3.70;;;19.70;99.90;;;;;;4194507;28;20052;-71
2022/07/06 10:16:37;;;;;;;3.92;3.42;;;19.70;99.90;;;;;;4193729;28;20048;-68
2022/07/06 10:18:40;;;;;;;5.45;4.05;;;19.70;99.90;;;;;;4193989;28;20098;-71
2022/07/06 10:20:41;;;;;;;4.95;4.25;;;19.70;99.90;;;;;;4193608;28;20436;-71
2022/07/06 10:22:43;;;;;;;4.45;4.05;;;19.70;99.90;;;;;;4194254;28;20036;-69
2022/07/06 10:24:46;;;;;;;4.13;3.13;;;19.70;99.90;;;;;;4193965;28;20025;-72
2022/07/06 10:26:50;;;;;;;4.03;3.47;;;19.70;99.90;;;;;;4193660;28;20040;-71
2022/07/06 10:28:52;;;;;;;4.28;3.40;;;19.70;99.90;;;;;;4194464;28;20093;-72
2022/07/06 10:30:54;;;;;;;4.03;3.63;;;19.70;99.90;;;;;;4194239;28;20518;-70
2022/07/06 10:32:57;;;;;;;3.97;3.67;;;19.70;99.90;;;;;;4194137;28;20074;-68
2022/07/06 10:34:59;;;;;;;6.78;4.80;;;19.70;99.90;;;;;;4194409;28;20109;-69